الصفحة الرئيسية
METAR-TAF:

METAR-TAF

مطار :

مطار نوفوسيبيرسك

نوفوسيبيرسك, روسيا

دائرة عرض: 55-01N, خط طول: 082-38E, ارتفاع: 111 متر

مراقبة الطقس الحالي

تاريخ ووقت الإصدار 19 دقيقة قبل الساعة 03:30UTC
ريح 10 عقدة من الجنوب
درجة الحرارة -11°درجة مئوية
الرطوبة 78%
ضغط 1032 hPa
الرؤية 10 كم أو أكثر
الغيوم لا تقل 1500 م ولا وجود لمزنة ركامية السحاب الأسود

METAR: UNNT 220330Z 18005MPS CAVOK M11/M14 Q1032 R25/810160 R16/810160 NOSIG RMK QFE764/1019

زمن: 10:49 (03:49 UTC)

توقعات

تاريخ ووقت الإصدار 1ساعة و 49 دقيقة قبل الساعة 02:00UTC
التوقعات صالحة من22 الساعة 03 UTC إلى 23 الساعة 03 UTC
ريح 12 عقدة من الجنوب/الجنوب الغربي تتزايد حتى 25 عقدة
الرؤية 10 كم أو أكثر
غيوم مفككة على ارتفاع 3000 قدم
مؤقت
من 22 الساعة 06 UTC إلى 22 الساعة 15 UTC
الرؤية: 3100 متر
غيوم مفككة على ارتفاع 1100 قدم, مزنة ركامية.
زخات ثلجية خفيفة

TAF: UNNT 220200Z 2203/2303 20006G13MPS 9999 BKN030 TEMPO 2206/2215 3100 -SHSN BKN011CB

أرصاد الطقس والتوقعات من أكثر من 4000 مطار (تقارير الطقس للمطار METAR والتنبؤ بالطقس بالمطارTAF).

المحطات المتاحة هي النقط الصفراء والحمراء على الخريطة.

حرك المؤشر فوق النقطة لمعرفة اسم المحطة.

ثم انقر لمعرفة أرصاد وتوقعات الطقس.

لتغيير الخارطة: اضغط على الأزرار الخضراء مع رمز الصليب الأسود للتكبير. على الزر الأخضر مع شرطة للتصغير، أو على الأسهم الخضراء للخرائط المجاورة.


METAR-TAF: